sensor_id;sensor_type;location;lat;lon;timestamp;temperature;humidity
30304;DHT22;17112;48.636;10.152;2023-05-07T00:01:17;15.30;61.60
30304;DHT22;17112;48.636;10.152;2023-05-07T00:03:42;15.30;61.70
30304;DHT22;17112;48.636;10.152;2023-05-07T00:06:08;15.20;61.70
30304;DHT22;17112;48.636;10.152;2023-05-07T00:08:35;15.20;61.70
30304;DHT22;17112;48.636;10.152;2023-05-07T00:11:01;15.20;61.70
30304;DHT22;17112;48.636;10.152;2023-05-07T00:13:26;15.10;61.80
30304;DHT22;17112;48.636;10.152;2023-05-07T00:15:52;15.10;61.90
30304;DHT22;17112;48.636;10.152;2023-05-07T00:18:18;15.10;61.90
30304;DHT22;17112;48.636;10.152;2023-05-07T00:20:46;15.10;62.00
30304;DHT22;17112;48.636;10.152;2023-05-07T00:23:12;15.10;62.20
30304;DHT22;17112;48.636;10.152;2023-05-07T00:25:37;15.00;62.20
30304;DHT22;17112;48.636;10.152;2023-05-07T00:28:03;15.00;62.20
30304;DHT22;17112;48.636;10.152;2023-05-07T00:30:29;15.00;62.20
30304;DHT22;17112;48.636;10.152;2023-05-07T00:32:54;15.00;62.30
30304;DHT22;17112;48.636;10.152;2023-05-07T00:35:20;15.00;62.40
30304;DHT22;17112;48.636;10.152;2023-05-07T00:37:46;15.00;62.50
30304;DHT22;17112;48.636;10.152;2023-05-07T00:40:13;14.90;62.40
30304;DHT22;17112;48.636;10.152;2023-05-07T00:42:39;14.90;62.40
30304;DHT22;17112;48.636;10.152;2023-05-07T00:45:05;14.90;62.50
30304;DHT22;17112;48.636;10.152;2023-05-07T00:47:33;14.90;62.50
30304;DHT22;17112;48.636;10.152;2023-05-07T00:49:59;14.90;62.60
30304;DHT22;17112;48.636;10.152;2023-05-07T00:52:25;14.80;63.30
30304;DHT22;17112;48.636;10.152;2023-05-07T00:54:51;14.80;62.80
30304;DHT22;17112;48.636;10.152;2023-05-07T00:57:17;14.80;62.70
30304;DHT22;17112;48.636;10.152;2023-05-07T00:59:44;14.80;62.70
30304;DHT22;17112;48.636;10.152;2023-05-07T01:02:10;14.70;62.80
30304;DHT22;17112;48.636;10.152;2023-05-07T01:04:35;14.70;62.90
30304;DHT22;17112;48.636;10.152;2023-05-07T01:07:02;14.70;62.90
30304;DHT22;17112;48.636;10.152;2023-05-07T01:09:29;14.70;63.00
30304;DHT22;17112;48.636;10.152;2023-05-07T01:11:55;14.70;63.10
30304;DHT22;17112;48.636;10.152;2023-05-07T01:14:23;14.70;63.20
30304;DHT22;17112;48.636;10.152;2023-05-07T01:16:48;14.60;63.10
30304;DHT22;17112;48.636;10.152;2023-05-07T01:19:18;14.60;63.10
30304;DHT22;17112;48.636;10.152;2023-05-07T01:21:47;14.60;63.30
30304;DHT22;17112;48.636;10.152;2023-05-07T01:24:13;14.60;63.40
30304;DHT22;17112;48.636;10.152;2023-05-07T01:26:40;14.50;63.20
30304;DHT22;17112;48.636;10.152;2023-05-07T01:29:05;14.50;63.40
30304;DHT22;17112;48.636;10.152;2023-05-07T01:31:33;14.50;63.40
30304;DHT22;17112;48.636;10.152;2023-05-07T01:34:01;14.50;63.60
30304;DHT22;17112;48.636;10.152;2023-05-07T01:36:29;14.40;63.60
30304;DHT22;17112;48.636;10.152;2023-05-07T01:38:55;14.40;63.70
30304;DHT22;17112;48.636;10.152;2023-05-07T01:41:23;14.40;63.60
30304;DHT22;17112;48.636;10.152;2023-05-07T01:43:50;14.40;63.50
30304;DHT22;17112;48.636;10.152;2023-05-07T01:46:18;14.40;63.50
30304;DHT22;17112;48.636;10.152;2023-05-07T01:48:45;14.40;63.70
30304;DHT22;17112;48.636;10.152;2023-05-07T01:51:11;14.30;63.80
30304;DHT22;17112;48.636;10.152;2023-05-07T01:53:38;14.30;63.70
30304;DHT22;17112;48.636;10.152;2023-05-07T01:56:05;14.30;63.80
30304;DHT22;17112;48.636;10.152;2023-05-07T01:58:30;14.30;63.80
30304;DHT22;17112;48.636;10.152;2023-05-07T02:00:56;14.20;63.90
30304;DHT22;17112;48.636;10.152;2023-05-07T02:03:22;14.20;63.90
30304;DHT22;17112;48.636;10.152;2023-05-07T02:05:47;14.20;64.00
30304;DHT22;17112;48.636;10.152;2023-05-07T02:08:13;14.20;64.10
30304;DHT22;17112;48.636;10.152;2023-05-07T02:10:39;14.20;64.10
30304;DHT22;17112;48.636;10.152;2023-05-07T02:13:04;14.20;64.10
30304;DHT22;17112;48.636;10.152;2023-05-07T02:15:30;14.10;64.10
30304;DHT22;17112;48.636;10.152;2023-05-07T02:18:03;14.10;64.00
30304;DHT22;17112;48.636;10.152;2023-05-07T02:20:29;14.10;64.40
30304;DHT22;17112;48.636;10.152;2023-05-07T02:22:54;14.10;64.00
30304;DHT22;17112;48.636;10.152;2023-05-07T02:25:20;14.10;64.10
30304;DHT22;17112;48.636;10.152;2023-05-07T02:27:46;14.00;64.10
30304;DHT22;17112;48.636;10.152;2023-05-07T02:30:12;14.00;64.20
30304;DHT22;17112;48.636;10.152;2023-05-07T02:32:37;14.00;64.20
30304;DHT22;17112;48.636;10.152;2023-05-07T02:35:04;13.90;64.40
30304;DHT22;17112;48.636;10.152;2023-05-07T02:37:30;13.90;64.50
30304;DHT22;17112;48.636;10.152;2023-05-07T02:39:55;13.90;64.60
30304;DHT22;17112;48.636;10.152;2023-05-07T02:42:21;13.90;64.70
30304;DHT22;17112;48.636;10.152;2023-05-07T02:44:47;13.90;64.70
30304;DHT22;17112;48.636;10.152;2023-05-07T02:47:14;13.90;64.70
30304;DHT22;17112;48.636;10.152;2023-05-07T02:49:40;13.90;64.70
30304;DHT22;17112;48.636;10.152;2023-05-07T02:52:06;13.80;64.70
30304;DHT22;17112;48.636;10.152;2023-05-07T02:54:32;13.80;64.70
30304;DHT22;17112;48.636;10.152;2023-05-07T02:56:57;13.80;64.60
30304;DHT22;17112;48.636;10.152;2023-05-07T02:59:23;13.80;64.60
30304;DHT22;17112;48.636;10.152;2023-05-07T03:01:50;13.70;64.70
30304;DHT22;17112;48.636;10.152;2023-05-07T03:04:16;13.70;64.70
30304;DHT22;17112;48.636;10.152;2023-05-07T03:06:42;13.70;64.80
30304;DHT22;17112;48.636;10.152;2023-05-07T03:09:08;13.70;64.90
30304;DHT22;17112;48.636;10.152;2023-05-07T03:11:34;13.70;64.90
30304;DHT22;17112;48.636;10.152;2023-05-07T03:14:01;13.60;64.90
30304;DHT22;17112;48.636;10.152;2023-05-07T03:16:26;13.60;64.80
30304;DHT22;17112;48.636;10.152;2023-05-07T03:18:52;13.60;64.60
30304;DHT22;17112;48.636;10.152;2023-05-07T03:21:18;13.60;64.70
30304;DHT22;17112;48.636;10.152;2023-05-07T03:23:44;13.50;64.70
30304;DHT22;17112;48.636;10.152;2023-05-07T03:26:09;13.50;64.70
30304;DHT22;17112;48.636;10.152;2023-05-07T03:28:36;13.50;65.30
30304;DHT22;17112;48.636;10.152;2023-05-07T03:31:01;13.50;64.70
30304;DHT22;17112;48.636;10.152;2023-05-07T03:33:27;13.50;64.70
30304;DHT22;17112;48.636;10.152;2023-05-07T03:35:53;13.40;64.80
30304;DHT22;17112;48.636;10.152;2023-05-07T03:38:19;13.40;64.90
30304;DHT22;17112;48.636;10.152;2023-05-07T03:40:45;13.40;65.00
30304;DHT22;17112;48.636;10.152;2023-05-07T03:43:11;13.40;65.20
30304;DHT22;17112;48.636;10.152;2023-05-07T03:45:37;13.40;65.10
30304;DHT22;17112;48.636;10.152;2023-05-07T03:48:03;13.30;65.10
30304;DHT22;17112;48.636;10.152;2023-05-07T03:50:28;13.30;65.00
30304;DHT22;17112;48.636;10.152;2023-05-07T03:52:54;13.30;65.10
30304;DHT22;17112;48.636;10.152;2023-05-07T03:55:20;13.30;65.30
30304;DHT22;17112;48.636;10.152;2023-05-07T03:57:46;13.30;65.40
30304;DHT22;17112;48.636;10.152;2023-05-07T04:00:12;13.30;65.50
30304;DHT22;17112;48.636;10.152;2023-05-07T04:02:38;13.20;65.40
30304;DHT22;17112;48.636;10.152;2023-05-07T04:05:04;13.30;65.50
30304;DHT22;17112;48.636;10.152;2023-05-07T04:07:30;13.20;65.60
30304;DHT22;17112;48.636;10.152;2023-05-07T04:09:56;13.20;65.60
30304;DHT22;17112;48.636;10.152;2023-05-07T04:12:21;13.20;65.60
30304;DHT22;17112;48.636;10.152;2023-05-07T04:14:47;13.10;65.60
30304;DHT22;17112;48.636;10.152;2023-05-07T04:17:12;13.10;65.70
30304;DHT22;17112;48.636;10.152;2023-05-07T04:19:38;13.10;65.70
30304;DHT22;17112;48.636;10.152;2023-05-07T04:22:05;13.10;65.50
30304;DHT22;17112;48.636;10.152;2023-05-07T04:24:33;13.10;65.70
30304;DHT22;17112;48.636;10.152;2023-05-07T04:26:59;13.10;66.00
30304;DHT22;17112;48.636;10.152;2023-05-07T04:29:25;13.10;66.00
30304;DHT22;17112;48.636;10.152;2023-05-07T04:31:50;13.10;66.10
30304;DHT22;17112;48.636;10.152;2023-05-07T04:34:16;13.10;66.10
30304;DHT22;17112;48.636;10.152;2023-05-07T04:36:42;13.10;66.20
30304;DHT22;17112;48.636;10.152;2023-05-07T04:39:07;13.10;66.30
30304;DHT22;17112;48.636;10.152;2023-05-07T04:41:36;13.10;66.40
30304;DHT22;17112;48.636;10.152;2023-05-07T04:44:01;13.10;67.30
30304;DHT22;17112;48.636;10.152;2023-05-07T04:46:29;13.10;66.70
30304;DHT22;17112;48.636;10.152;2023-05-07T04:48:55;13.10;66.80
30304;DHT22;17112;48.636;10.152;2023-05-07T04:51:20;13.20;66.90
30304;DHT22;17112;48.636;10.152;2023-05-07T04:53:47;13.20;66.90
30304;DHT22;17112;48.636;10.152;2023-05-07T04:56:13;13.20;66.90
30304;DHT22;17112;48.636;10.152;2023-05-07T04:58:38;13.20;66.90
30304;DHT22;17112;48.636;10.152;2023-05-07T05:01:04;13.30;67.00
30304;DHT22;17112;48.636;10.152;2023-05-07T05:03:30;13.30;67.20
30304;DHT22;17112;48.636;10.152;2023-05-07T05:05:56;13.30;67.40
30304;DHT22;17112;48.636;10.152;2023-05-07T05:08:24;13.40;67.50
30304;DHT22;17112;48.636;10.152;2023-05-07T05:10:50;13.50;67.50
30304;DHT22;17112;48.636;10.152;2023-05-07T05:13:16;13.60;67.60
30304;DHT22;17112;48.636;10.152;2023-05-07T05:15:42;13.70;67.60
30304;DHT22;17112;48.636;10.152;2023-05-07T05:18:07;13.80;67.50
30304;DHT22;17112;48.636;10.152;2023-05-07T05:20:33;13.90;67.40
30304;DHT22;17112;48.636;10.152;2023-05-07T05:22:59;14.00;67.30
30304;DHT22;17112;48.636;10.152;2023-05-07T05:25:24;14.20;67.20
30304;DHT22;17112;48.636;10.152;2023-05-07T05:27:50;14.30;67.10
30304;DHT22;17112;48.636;10.152;2023-05-07T05:30:16;14.40;66.70
30304;DHT22;17112;48.636;10.152;2023-05-07T05:32:41;14.50;66.40
30304;DHT22;17112;48.636;10.152;2023-05-07T05:35:07;14.60;66.20
30304;DHT22;17112;48.636;10.152;2023-05-07T05:37:33;14.60;66.20
30304;DHT22;17112;48.636;10.152;2023-05-07T05:39:59;14.70;66.30
30304;DHT22;17112;48.636;10.152;2023-05-07T05:42:25;14.80;66.30
30304;DHT22;17112;48.636;10.152;2023-05-07T05:44:50;14.90;66.30
30304;DHT22;17112;48.636;10.152;2023-05-07T05:47:16;15.00;66.10
30304;DHT22;17112;48.636;10.152;2023-05-07T05:49:42;15.10;65.90
30304;DHT22;17112;48.636;10.152;2023-05-07T05:52:09;15.20;65.70
30304;DHT22;17112;48.636;10.152;2023-05-07T05:54:34;15.30;65.60
30304;DHT22;17112;48.636;10.152;2023-05-07T05:57:00;15.40;65.50
30304;DHT22;17112;48.636;10.152;2023-05-07T05:59:29;15.50;65.40
30304;DHT22;17112;48.636;10.152;2023-05-07T06:01:55;15.70;65.30
30304;DHT22;17112;48.636;10.152;2023-05-07T06:04:20;15.80;65.30
30304;DHT22;17112;48.636;10.152;2023-05-07T06:06:46;15.90;65.10
30304;DHT22;17112;48.636;10.152;2023-05-07T06:09:12;16.00;64.90
30304;DHT22;17112;48.636;10.152;2023-05-07T06:11:37;16.20;65.00
30304;DHT22;17112;48.636;10.152;2023-05-07T06:14:03;16.30;64.70
30304;DHT22;17112;48.636;10.152;2023-05-07T06:16:29;16.50;64.50
30304;DHT22;17112;48.636;10.152;2023-05-07T06:18:55;16.60;64.20
30304;DHT22;17112;48.636;10.152;2023-05-07T06:21:21;16.80;64.10
30304;DHT22;17112;48.636;10.152;2023-05-07T06:23:46;16.90;64.00
30304;DHT22;17112;48.636;10.152;2023-05-07T06:26:12;17.10;64.10
30304;DHT22;17112;48.636;10.152;2023-05-07T06:28:37;17.20;63.80
30304;DHT22;17112;48.636;10.152;2023-05-07T06:31:14;17.40;63.60
30304;DHT22;17112;48.636;10.152;2023-05-07T06:33:40;17.50;63.10
30304;DHT22;17112;48.636;10.152;2023-05-07T06:36:06;17.70;62.70
30304;DHT22;17112;48.636;10.152;2023-05-07T06:38:31;17.80;62.20
30304;DHT22;17112;48.636;10.152;2023-05-07T06:40:57;18.00;62.30
30304;DHT22;17112;48.636;10.152;2023-05-07T06:43:23;18.10;61.70
30304;DHT22;17112;48.636;10.152;2023-05-07T06:45:48;18.30;61.10
30304;DHT22;17112;48.636;10.152;2023-05-07T06:48:14;18.40;61.10
30304;DHT22;17112;48.636;10.152;2023-05-07T06:50:41;18.50;61.00
30304;DHT22;17112;48.636;10.152;2023-05-07T06:53:07;18.70;60.60
30304;DHT22;17112;48.636;10.152;2023-05-07T06:55:32;18.80;60.40
30304;DHT22;17112;48.636;10.152;2023-05-07T06:57:58;18.90;60.30
30304;DHT22;17112;48.636;10.152;2023-05-07T07:00:26;19.00;59.90
30304;DHT22;17112;48.636;10.152;2023-05-07T07:02:54;19.20;59.90
30304;DHT22;17112;48.636;10.152;2023-05-07T07:05:20;19.30;59.60
30304;DHT22;17112;48.636;10.152;2023-05-07T07:07:45;19.40;59.50
30304;DHT22;17112;48.636;10.152;2023-05-07T07:10:18;19.60;59.40
30304;DHT22;17112;48.636;10.152;2023-05-07T07:12:44;19.70;59.10
30304;DHT22;17112;48.636;10.152;2023-05-07T07:15:10;19.90;58.80
30304;DHT22;17112;48.636;10.152;2023-05-07T07:17:36;20.00;58.60
30304;DHT22;17112;48.636;10.152;2023-05-07T07:20:02;20.20;58.30
30304;DHT22;17112;48.636;10.152;2023-05-07T07:22:28;20.30;58.10
30304;DHT22;17112;48.636;10.152;2023-05-07T07:24:54;20.50;58.00
30304;DHT22;17112;48.636;10.152;2023-05-07T07:27:20;20.60;57.70
30304;DHT22;17112;48.636;10.152;2023-05-07T07:29:46;20.70;57.60
30304;DHT22;17112;48.636;10.152;2023-05-07T07:32:12;20.80;57.20
30304;DHT22;17112;48.636;10.152;2023-05-07T07:34:37;20.90;56.70
30304;DHT22;17112;48.636;10.152;2023-05-07T07:37:03;20.90;56.80
30304;DHT22;17112;48.636;10.152;2023-05-07T07:39:32;21.00;56.80
30304;DHT22;17112;48.636;10.152;2023-05-07T07:41:58;21.10;56.60
30304;DHT22;17112;48.636;10.152;2023-05-07T07:44:25;21.20;56.70
30304;DHT22;17112;48.636;10.152;2023-05-07T07:46:51;21.30;56.30
30304;DHT22;17112;48.636;10.152;2023-05-07T07:49:17;21.40;55.70
30304;DHT22;17112;48.636;10.152;2023-05-07T07:51:43;21.50;55.50
30304;DHT22;17112;48.636;10.152;2023-05-07T07:54:08;21.60;55.40
30304;DHT22;17112;48.636;10.152;2023-05-07T07:56:34;21.70;55.20
30304;DHT22;17112;48.636;10.152;2023-05-07T07:59:00;21.70;55.10
30304;DHT22;17112;48.636;10.152;2023-05-07T08:01:26;21.80;55.00
30304;DHT22;17112;48.636;10.152;2023-05-07T08:03:52;21.90;54.70
30304;DHT22;17112;48.636;10.152;2023-05-07T08:06:18;21.90;54.70
30304;DHT22;17112;48.636;10.152;2023-05-07T08:08:44;22.00;54.40
30304;DHT22;17112;48.636;10.152;2023-05-07T08:11:10;22.10;54.30
30304;DHT22;17112;48.636;10.152;2023-05-07T08:13:36;22.10;53.70
30304;DHT22;17112;48.636;10.152;2023-05-07T08:16:04;22.10;53.80
30304;DHT22;17112;48.636;10.152;2023-05-07T08:18:29;22.10;53.70
30304;DHT22;17112;48.636;10.152;2023-05-07T08:20:55;22.10;53.80
30304;DHT22;17112;48.636;10.152;2023-05-07T08:23:21;22.20;53.80
30304;DHT22;17112;48.636;10.152;2023-05-07T08:25:48;22.30;53.70
30304;DHT22;17112;48.636;10.152;2023-05-07T08:28:14;22.40;53.70
30304;DHT22;17112;48.636;10.152;2023-05-07T08:30:40;22.50;53.50
30304;DHT22;17112;48.636;10.152;2023-05-07T08:33:08;22.60;53.70
30304;DHT22;17112;48.636;10.152;2023-05-07T08:35:34;22.70;53.30
30304;DHT22;17112;48.636;10.152;2023-05-07T08:37:59;22.80;53.10
30304;DHT22;17112;48.636;10.152;2023-05-07T08:40:26;22.90;52.40
30304;DHT22;17112;48.636;10.152;2023-05-07T08:42:53;23.00;52.60
30304;DHT22;17112;48.636;10.152;2023-05-07T08:45:19;23.10;52.40
30304;DHT22;17112;48.636;10.152;2023-05-07T08:47:54;23.20;52.30
30304;DHT22;17112;48.636;10.152;2023-05-07T08:50:21;23.30;52.30
30304;DHT22;17112;48.636;10.152;2023-05-07T08:52:47;23.40;52.70
30304;DHT22;17112;48.636;10.152;2023-05-07T08:55:13;23.60;52.40
30304;DHT22;17112;48.636;10.152;2023-05-07T08:57:40;23.70;52.40
30304;DHT22;17112;48.636;10.152;2023-05-07T09:00:06;23.90;52.30
30304;DHT22;17112;48.636;10.152;2023-05-07T09:02:33;24.00;51.90
30304;DHT22;17112;48.636;10.152;2023-05-07T09:04:58;24.10;52.40
30304;DHT22;17112;48.636;10.152;2023-05-07T09:07:25;24.20;51.70
30304;DHT22;17112;48.636;10.152;2023-05-07T09:09:51;24.40;50.90
30304;DHT22;17112;48.636;10.152;2023-05-07T09:12:18;24.50;50.60
30304;DHT22;17112;48.636;10.152;2023-05-07T09:14:44;24.60;50.20
30304;DHT22;17112;48.636;10.152;2023-05-07T09:17:11;24.70;50.50
30304;DHT22;17112;48.636;10.152;2023-05-07T09:19:36;24.80;49.60
30304;DHT22;17112;48.636;10.152;2023-05-07T09:22:04;24.90;49.60
30304;DHT22;17112;48.636;10.152;2023-05-07T09:24:31;25.00;49.20
30304;DHT22;17112;48.636;10.152;2023-05-07T09:27:01;25.00;48.90
30304;DHT22;17112;48.636;10.152;2023-05-07T09:29:28;25.10;48.30
30304;DHT22;17112;48.636;10.152;2023-05-07T09:32:01;25.10;48.10
30304;DHT22;17112;48.636;10.152;2023-05-07T09:34:29;25.20;48.50
30304;DHT22;17112;48.636;10.152;2023-05-07T09:36:55;25.20;48.50
30304;DHT22;17112;48.636;10.152;2023-05-07T09:39:23;25.30;48.10
30304;DHT22;17112;48.636;10.152;2023-05-07T09:41:49;25.30;48.30
30304;DHT22;17112;48.636;10.152;2023-05-07T09:44:15;25.40;48.60
30304;DHT22;17112;48.636;10.152;2023-05-07T09:46:43;25.40;47.80
30304;DHT22;17112;48.636;10.152;2023-05-07T09:49:18;25.60;47.60
30304;DHT22;17112;48.636;10.152;2023-05-07T09:51:50;25.60;47.60
30304;DHT22;17112;48.636;10.152;2023-05-07T09:54:17;25.70;47.60
30304;DHT22;17112;48.636;10.152;2023-05-07T09:56:46;25.80;47.90
30304;DHT22;17112;48.636;10.152;2023-05-07T09:59:14;25.80;47.50
30304;DHT22;17112;48.636;10.152;2023-05-07T10:01:42;25.90;46.90
30304;DHT22;17112;48.636;10.152;2023-05-07T10:04:08;26.00;47.00
30304;DHT22;17112;48.636;10.152;2023-05-07T10:06:35;26.00;45.90
30304;DHT22;17112;48.636;10.152;2023-05-07T10:09:02;26.00;45.60
30304;DHT22;17112;48.636;10.152;2023-05-07T10:11:28;26.10;45.70
30304;DHT22;17112;48.636;10.152;2023-05-07T10:13:54;26.20;45.00
30304;DHT22;17112;48.636;10.152;2023-05-07T10:16:21;26.20;45.20
30304;DHT22;17112;48.636;10.152;2023-05-07T10:18:47;26.30;45.30
30304;DHT22;17112;48.636;10.152;2023-05-07T10:21:18;26.30;44.60
30304;DHT22;17112;48.636;10.152;2023-05-07T10:23:54;26.40;44.50
30304;DHT22;17112;48.636;10.152;2023-05-07T10:26:23;26.40;43.70
30304;DHT22;17112;48.636;10.152;2023-05-07T10:28:56;26.50;44.20
30304;DHT22;17112;48.636;10.152;2023-05-07T10:31:39;26.60;43.40
30304;DHT22;17112;48.636;10.152;2023-05-07T10:34:16;26.60;43.60
30304;DHT22;17112;48.636;10.152;2023-05-07T10:36:44;26.50;43.00
30304;DHT22;17112;48.636;10.152;2023-05-07T10:39:10;26.50;43.50
30304;DHT22;17112;48.636;10.152;2023-05-07T10:41:36;26.50;44.20
30304;DHT22;17112;48.636;10.152;2023-05-07T10:44:02;26.50;43.80
30304;DHT22;17112;48.636;10.152;2023-05-07T10:46:28;26.60;43.80
30304;DHT22;17112;48.636;10.152;2023-05-07T10:51:27;26.60;42.50
30304;DHT22;17112;48.636;10.152;2023-05-07T10:56:42;26.80;42.70
30304;DHT22;17112;48.636;10.152;2023-05-07T11:01:53;27.00;41.80
30304;DHT22;17112;48.636;10.152;2023-05-07T11:04:19;27.10;42.50
30304;DHT22;17112;48.636;10.152;2023-05-07T11:15:07;27.40;40.40
30304;DHT22;17112;48.636;10.152;2023-05-07T11:17:33;27.40;40.10
30304;DHT22;17112;48.636;10.152;2023-05-07T11:20:03;27.40;40.90
30304;DHT22;17112;48.636;10.152;2023-05-07T11:25:05;27.50;40.80
30304;DHT22;17112;48.636;10.152;2023-05-07T11:27:32;27.60;40.30
30304;DHT22;17112;48.636;10.152;2023-05-07T11:29:58;27.60;41.80
30304;DHT22;17112;48.636;10.152;2023-05-07T11:32:25;27.60;41.00
30304;DHT22;17112;48.636;10.152;2023-05-07T11:34:52;27.70;40.90
30304;DHT22;17112;48.636;10.152;2023-05-07T11:37:19;27.70;41.30
30304;DHT22;17112;48.636;10.152;2023-05-07T11:39:45;27.70;41.30
30304;DHT22;17112;48.636;10.152;2023-05-07T11:42:35;27.70;40.90
30304;DHT22;17112;48.636;10.152;2023-05-07T11:45:01;27.80;40.00
30304;DHT22;17112;48.636;10.152;2023-05-07T11:47:30;27.80;40.60
30304;DHT22;17112;48.636;10.152;2023-05-07T11:49:56;27.90;40.40
30304;DHT22;17112;48.636;10.152;2023-05-07T11:52:23;27.90;40.60
30304;DHT22;17112;48.636;10.152;2023-05-07T11:54:51;27.90;38.90
30304;DHT22;17112;48.636;10.152;2023-05-07T11:57:18;28.00;39.40
30304;DHT22;17112;48.636;10.152;2023-05-07T11:59:43;28.00;40.10
30304;DHT22;17112;48.636;10.152;2023-05-07T12:02:17;28.00;40.80
30304;DHT22;17112;48.636;10.152;2023-05-07T12:04:43;28.10;40.60
30304;DHT22;17112;48.636;10.152;2023-05-07T12:07:13;28.10;39.70
30304;DHT22;17112;48.636;10.152;2023-05-07T12:09:42;28.10;38.70
30304;DHT22;17112;48.636;10.152;2023-05-07T12:12:08;28.10;39.40
30304;DHT22;17112;48.636;10.152;2023-05-07T12:14:42;28.10;39.50
30304;DHT22;17112;48.636;10.152;2023-05-07T12:17:08;28.10;39.20
30304;DHT22;17112;48.636;10.152;2023-05-07T12:19:35;28.20;39.70
30304;DHT22;17112;48.636;10.152;2023-05-07T12:22:02;28.20;39.70
30304;DHT22;17112;48.636;10.152;2023-05-07T12:24:28;28.20;39.00
30304;DHT22;17112;48.636;10.152;2023-05-07T12:26:54;28.30;38.90
30304;DHT22;17112;48.636;10.152;2023-05-07T12:29:23;28.30;38.80
30304;DHT22;17112;48.636;10.152;2023-05-07T12:31:50;28.30;38.50
30304;DHT22;17112;48.636;10.152;2023-05-07T12:34:16;28.30;39.10
30304;DHT22;17112;48.636;10.152;2023-05-07T12:36:41;28.30;39.00
30304;DHT22;17112;48.636;10.152;2023-05-07T12:39:08;28.30;38.80
30304;DHT22;17112;48.636;10.152;2023-05-07T12:41:57;28.30;39.00
30304;DHT22;17112;48.636;10.152;2023-05-07T12:44:35;28.20;38.30
30304;DHT22;17112;48.636;10.152;2023-05-07T12:47:02;28.20;39.30
30304;DHT22;17112;48.636;10.152;2023-05-07T12:49:28;28.20;39.40
30304;DHT22;17112;48.636;10.152;2023-05-07T12:51:54;28.20;38.80
30304;DHT22;17112;48.636;10.152;2023-05-07T12:54:30;28.20;38.60
30304;DHT22;17112;48.636;10.152;2023-05-07T12:57:07;28.10;38.70
30304;DHT22;17112;48.636;10.152;2023-05-07T12:59:41;28.00;38.10
30304;DHT22;17112;48.636;10.152;2023-05-07T13:02:08;28.10;37.50
30304;DHT22;17112;48.636;10.152;2023-05-07T13:04:34;27.90;39.10
30304;DHT22;17112;48.636;10.152;2023-05-07T13:07:00;27.80;38.90
30304;DHT22;17112;48.636;10.152;2023-05-07T13:09:26;27.70;39.00
30304;DHT22;17112;48.636;10.152;2023-05-07T13:11:53;27.70;39.10
30304;DHT22;17112;48.636;10.152;2023-05-07T13:14:19;27.60;39.30
30304;DHT22;17112;48.636;10.152;2023-05-07T13:16:46;27.60;39.40
30304;DHT22;17112;48.636;10.152;2023-05-07T13:19:12;27.50;39.00
30304;DHT22;17112;48.636;10.152;2023-05-07T13:21:38;27.50;39.40
30304;DHT22;17112;48.636;10.152;2023-05-07T13:24:03;27.40;39.30
30304;DHT22;17112;48.636;10.152;2023-05-07T13:26:31;27.30;39.00
30304;DHT22;17112;48.636;10.152;2023-05-07T13:28:57;27.30;39.00
30304;DHT22;17112;48.636;10.152;2023-05-07T13:31:24;27.20;39.30
30304;DHT22;17112;48.636;10.152;2023-05-07T13:33:50;27.10;39.10
30304;DHT22;17112;48.636;10.152;2023-05-07T13:36:15;27.00;38.90
30304;DHT22;17112;48.636;10.152;2023-05-07T13:38:41;26.90;39.40
30304;DHT22;17112;48.636;10.152;2023-05-07T13:41:07;26.80;39.30
30304;DHT22;17112;48.636;10.152;2023-05-07T13:43:32;26.70;39.40
30304;DHT22;17112;48.636;10.152;2023-05-07T13:45:59;26.60;39.70
30304;DHT22;17112;48.636;10.152;2023-05-07T13:48:25;26.50;40.30
30304;DHT22;17112;48.636;10.152;2023-05-07T13:50:51;26.50;40.60
30304;DHT22;17112;48.636;10.152;2023-05-07T13:53:18;26.50;40.60
30304;DHT22;17112;48.636;10.152;2023-05-07T13:55:44;26.40;40.70
30304;DHT22;17112;48.636;10.152;2023-05-07T13:58:10;26.30;40.40
30304;DHT22;17112;48.636;10.152;2023-05-07T14:00:36;26.30;40.40
30304;DHT22;17112;48.636;10.152;2023-05-07T14:03:04;26.20;40.70
30304;DHT22;17112;48.636;10.152;2023-05-07T14:05:30;26.20;41.00
30304;DHT22;17112;48.636;10.152;2023-05-07T14:07:59;26.10;41.10
30304;DHT22;17112;48.636;10.152;2023-05-07T14:10:25;26.00;40.90
30304;DHT22;17112;48.636;10.152;2023-05-07T14:12:51;26.00;41.20
30304;DHT22;17112;48.636;10.152;2023-05-07T14:15:18;25.90;41.30
30304;DHT22;17112;48.636;10.152;2023-05-07T14:17:43;25.80;41.00
30304;DHT22;17112;48.636;10.152;2023-05-07T14:20:10;25.80;41.20
30304;DHT22;17112;48.636;10.152;2023-05-07T14:22:36;25.80;41.60
30304;DHT22;17112;48.636;10.152;2023-05-07T14:25:02;25.70;41.00
30304;DHT22;17112;48.636;10.152;2023-05-07T14:27:27;25.70;41.50
30304;DHT22;17112;48.636;10.152;2023-05-07T14:29:54;25.70;41.60
30304;DHT22;17112;48.636;10.152;2023-05-07T14:32:20;25.70;41.40
30304;DHT22;17112;48.636;10.152;2023-05-07T14:34:46;25.60;41.20
30304;DHT22;17112;48.636;10.152;2023-05-07T14:37:12;25.60;41.20
30304;DHT22;17112;48.636;10.152;2023-05-07T14:39:37;25.60;41.80
30304;DHT22;17112;48.636;10.152;2023-05-07T14:42:03;25.60;42.00
30304;DHT22;17112;48.636;10.152;2023-05-07T14:44:29;25.50;42.10
30304;DHT22;17112;48.636;10.152;2023-05-07T14:46:55;25.50;41.90
30304;DHT22;17112;48.636;10.152;2023-05-07T14:49:20;25.50;41.90
30304;DHT22;17112;48.636;10.152;2023-05-07T14:51:46;25.50;42.00
30304;DHT22;17112;48.636;10.152;2023-05-07T14:54:13;25.50;42.20
30304;DHT22;17112;48.636;10.152;2023-05-07T14:56:39;25.40;42.10
30304;DHT22;17112;48.636;10.152;2023-05-07T14:59:05;25.40;42.30
30304;DHT22;17112;48.636;10.152;2023-05-07T15:01:31;25.40;42.30
30304;DHT22;17112;48.636;10.152;2023-05-07T15:03:57;25.30;41.80
30304;DHT22;17112;48.636;10.152;2023-05-07T15:06:22;25.30;42.20
30304;DHT22;17112;48.636;10.152;2023-05-07T15:08:48;25.20;42.70
30304;DHT22;17112;48.636;10.152;2023-05-07T15:11:14;25.20;43.10
30304;DHT22;17112;48.636;10.152;2023-05-07T15:13:42;25.20;43.00
30304;DHT22;17112;48.636;10.152;2023-05-07T15:16:08;25.10;43.40
30304;DHT22;17112;48.636;10.152;2023-05-07T15:18:33;25.10;43.30
30304;DHT22;17112;48.636;10.152;2023-05-07T15:20:59;25.10;43.30
30304;DHT22;17112;48.636;10.152;2023-05-07T15:23:25;25.00;43.50
30304;DHT22;17112;48.636;10.152;2023-05-07T15:25:52;25.00;43.30
30304;DHT22;17112;48.636;10.152;2023-05-07T15:28:17;24.90;43.40
30304;DHT22;17112;48.636;10.152;2023-05-07T15:30:43;24.90;43.70